createdAt,value
2019-04-24T00:08:44.132Z,921.8
2019-04-24T00:14:38.183Z,921.8
2019-04-24T00:17:52.515Z,921.8
2019-04-24T00:26:25.207Z,921.9
2019-04-24T00:29:47.367Z,921.9
2019-04-24T00:31:55.099Z,921.8
2019-04-24T00:34:52.466Z,921.8
2019-04-24T00:38:12.007Z,921.7
2019-04-24T00:40:58.060Z,921.6
2019-04-24T00:43:45.312Z,921.6
2019-04-24T00:46:35.485Z,921.8
2019-04-24T00:49:42.746Z,921.8
2019-04-24T00:52:19.407Z,921.8
2019-04-24T00:55:52.492Z,921.8
2019-04-24T00:58:41.517Z,921.7
2019-04-24T01:05:03.628Z,921.8
2019-04-24T01:13:25.985Z,921.9
2019-04-24T01:16:06.360Z,921.8
2019-04-24T01:18:56.385Z,921.7
2019-04-24T01:24:58.878Z,921.6
2019-04-24T01:27:34.582Z,921.7
2019-04-24T01:33:40.486Z,921.6
2019-04-24T01:39:21.469Z,921.9
2019-04-24T01:42:23.717Z,921.9
2019-04-24T01:45:04.547Z,921.8
2019-04-24T01:48:24.534Z,922
2019-04-24T01:54:35.495Z,922
2019-04-24T01:56:38.001Z,922
2019-04-24T01:59:52.578Z,922.1
2019-04-24T02:03:04.470Z,922.1
2019-04-24T02:05:51.945Z,922.1
2019-04-24T02:14:29.758Z,922.1
2019-04-24T02:17:34.679Z,921.9
2019-04-24T02:20:00.190Z,922.1
2019-04-24T02:23:18.043Z,922.1
2019-04-24T02:26:28.091Z,922
2019-04-24T02:29:04.642Z,922.1
2019-04-24T02:52:26.989Z,922.5
2019-04-24T03:01:19.682Z,922.4
2019-04-24T03:07:02.355Z,922.3
2019-04-24T03:16:15.553Z,922.5
2019-04-24T03:33:58.868Z,922.7
2019-04-24T03:51:46.934Z,922.5
2019-04-24T04:02:40.357Z,922.7
2019-04-24T04:05:32.639Z,922.8
2019-04-24T04:11:08.413Z,922.8
2019-04-24T04:26:07.231Z,923
2019-04-24T04:37:48.325Z,923.2
2019-04-24T04:52:59.069Z,923.3
2019-04-24T05:13:05.926Z,923.4
2019-04-24T05:16:15.358Z,923.6
2019-04-24T05:21:41.688Z,923.7
2019-04-24T05:24:38.866Z,923.7
2019-04-24T05:30:36.865Z,923.9
2019-04-24T05:36:33.713Z,923.9
2019-04-24T05:39:10.001Z,924
2019-04-24T05:41:54.904Z,924
2019-04-24T05:45:12.312Z,924
2019-04-24T05:47:55.723Z,923.7
2019-04-24T05:51:01.207Z,923.9
2019-04-24T05:53:51.155Z,923.9
2019-04-24T05:56:41.256Z,922.6
2019-04-24T06:08:11.445Z,923.7
2019-04-24T06:11:38.376Z,922.6
2019-04-24T06:14:10.279Z,923.7
2019-04-24T06:22:51.158Z,923.9
2019-04-24T06:26:18.195Z,922.8
2019-04-24T06:28:50.405Z,923.9
2019-04-24T06:31:40.233Z,924
2019-04-24T06:37:43.580Z,924
2019-04-24T06:58:14.375Z,924.1
2019-04-24T07:12:42.852Z,924.3
2019-04-24T07:16:54.518Z,924.2
2019-04-24T07:19:05.154Z,924.3
2019-04-24T07:24:30.578Z,924.3
2019-04-24T07:28:07.277Z,924.3
2019-04-24T07:30:39.720Z,924.4
2019-04-24T07:33:56.811Z,924.4
2019-04-24T07:42:41.560Z,924.5
2019-04-24T07:47:59.782Z,924.2
2019-04-24T07:51:23.920Z,924.4
2019-04-24T07:57:17.733Z,924.4
2019-04-24T08:00:18.549Z,924.4
2019-04-24T08:05:40.679Z,924.5
2019-04-24T08:09:04.575Z,924.5
2019-04-24T08:11:51.215Z,924.6
2019-04-24T08:14:55.325Z,924.6
2019-04-24T08:17:15.516Z,924.7
2019-04-24T08:20:25.487Z,924.7
2019-04-24T08:23:31.743Z,923.5
2019-04-24T08:26:16.020Z,924.6
2019-04-24T08:29:18.470Z,924.7
2019-04-24T08:32:36.814Z,924.7
2019-04-24T08:35:42.983Z,924.6
2019-04-24T08:46:55.289Z,924.6
2019-04-24T08:53:01.468Z,924.7
2019-04-24T08:55:34.267Z,924.8
2019-04-24T09:01:54.895Z,924.3
2019-04-24T09:07:36.487Z,924.9
2019-04-24T09:16:36.280Z,924.7
2019-04-24T09:19:14.487Z,924.6
2019-04-24T09:31:24.281Z,924.6
2019-04-24T09:37:06.278Z,924.5
2019-04-24T09:43:10.937Z,924.6
2019-04-24T09:51:53.344Z,924.6
2019-04-24T09:57:12.645Z,924.5
2019-04-24T10:00:23.501Z,924.5
2019-04-24T10:03:09.795Z,924.4
2019-04-24T10:06:00.317Z,924.5
2019-04-24T10:09:31.987Z,924.4
2019-04-24T10:12:34.630Z,923.2
2019-04-24T10:14:14.843Z,924.4
2019-04-24T10:17:48.787Z,924.4
2019-04-24T10:21:06.444Z,924.4
2019-04-24T10:23:54.639Z,924.4
2019-04-24T10:27:08.534Z,924.4
2019-04-24T10:30:23.917Z,924.4
2019-04-24T10:32:57.140Z,924.4
2019-04-24T10:41:36.385Z,924.3
2019-04-24T10:44:17.617Z,924.3
2019-04-24T10:50:33.024Z,924.5
2019-04-24T10:56:22.953Z,924.5
2019-04-24T10:58:49.718Z,924.6
2019-04-24T11:13:55.117Z,924.7
2019-04-24T11:19:19.693Z,924.7
2019-04-24T11:22:38.802Z,924.6
2019-04-24T11:28:49.178Z,924.7
2019-04-24T11:31:23.779Z,924.7
2019-04-24T11:35:03.972Z,924.7
2019-04-24T11:36:55.597Z,924.7
2019-04-24T11:42:57.363Z,924.7
2019-04-24T11:46:28.113Z,924.8
2019-04-24T11:49:02.537Z,924.9
2019-04-24T11:59:03.877Z,924.8
2019-04-24T12:03:12.096Z,924.8
2019-04-24T12:09:24.340Z,925
2019-04-24T12:12:12.952Z,925
2019-04-24T12:15:00.868Z,924.9
2019-04-24T12:17:58.066Z,924.9
2019-04-24T12:23:54.569Z,924.9
2019-04-24T12:27:04.366Z,924.9
2019-04-24T12:29:55.639Z,924.9
2019-04-24T12:32:42.369Z,925
2019-04-24T12:35:30.768Z,925
2019-04-24T12:41:52.908Z,925.1
2019-04-24T12:44:20.822Z,925
2019-04-24T12:50:23.235Z,925
2019-04-24T12:52:52.953Z,925.2
2019-04-24T12:56:14.117Z,925
2019-04-24T12:59:21.454Z,925
2019-04-24T13:01:49.894Z,925
2019-04-24T13:05:27.370Z,923.7
2019-04-24T13:17:12.516Z,924.9
2019-04-24T13:19:54.563Z,924.3
2019-04-24T13:24:04.712Z,924.7
2019-04-24T13:29:13.074Z,924.6
2019-04-24T13:31:29.567Z,924.3
2019-04-24T13:34:52.970Z,924.6
2019-04-24T13:40:46.383Z,924.4
2019-04-24T13:49:18.196Z,924.6
2019-04-24T13:52:36.810Z,924.5
2019-04-24T13:57:37.933Z,924.5
2019-04-24T14:01:17.126Z,924.5
2019-04-24T14:04:08.570Z,924.6
2019-04-24T14:07:10.271Z,924.6
2019-04-24T14:18:43.167Z,924.6
2019-04-24T14:21:22.296Z,924.7
2019-04-24T14:24:24.380Z,924.6
2019-04-24T14:27:22.037Z,924.5
2019-04-24T14:30:09.716Z,924.4
2019-04-24T14:42:02.669Z,924.2
2019-04-24T14:45:14.462Z,924.4
2019-04-24T14:47:43.006Z,924.4
2019-04-24T14:50:47.132Z,924.3
2019-04-24T14:53:45.764Z,924.2
2019-04-24T14:56:18.811Z,924.2
2019-04-24T15:00:01.221Z,924.3
2019-04-24T15:02:42.645Z,924.3
2019-04-24T15:11:09.837Z,924.1
2019-04-24T15:17:27.694Z,924
2019-04-24T15:20:18.310Z,924
2019-04-24T15:26:02.229Z,924.1
2019-04-24T15:29:03.397Z,924
2019-04-24T15:31:19.440Z,924
2019-04-24T15:37:39.880Z,924.1
2019-04-24T15:41:05.088Z,924.1
2019-04-24T15:43:35.984Z,924.1
2019-04-24T15:46:23.612Z,924.1
2019-04-24T15:49:43.853Z,924
2019-04-24T15:51:35.379Z,924
2019-04-24T15:52:13.580Z,924
2019-04-24T15:55:09.000Z,924
2019-04-24T15:59:00.559Z,924
2019-04-24T16:05:02.033Z,923.5
2019-04-24T16:06:52.013Z,923.7
2019-04-24T16:09:47.904Z,923.9
2019-04-24T16:12:43.703Z,923.9
2019-04-24T16:21:06.480Z,923.8
2019-04-24T16:27:24.730Z,924
2019-04-24T16:30:35.091Z,924.1
2019-04-24T16:33:34.336Z,924.2
2019-04-24T16:36:01.353Z,924.2
2019-04-24T16:44:52.665Z,924.1
2019-04-24T16:47:44.444Z,924.3
2019-04-24T16:51:13.893Z,924.3
2019-04-24T16:54:10.155Z,924.3
2019-04-24T16:56:23.718Z,924.3
2019-04-24T16:59:21.210Z,924.3
2019-04-24T17:02:24.216Z,924.3
2019-04-24T17:08:47.399Z,924.4
2019-04-24T17:11:08.597Z,924.4
2019-04-24T17:14:07.838Z,924.5
2019-04-24T17:22:59.835Z,924.7
2019-04-24T17:25:57.861Z,924.8
2019-04-24T17:34:28.945Z,924.9
2019-04-24T17:36:31.216Z,924.9
2019-04-24T17:37:45.254Z,924.9
2019-04-24T17:40:41.220Z,925
2019-04-24T17:46:10.652Z,925.1
2019-04-24T17:49:21.672Z,925.1
2019-04-24T17:52:14.315Z,925.1
2019-04-24T17:55:01.234Z,925.2
2019-04-24T18:01:09.076Z,925.2
2019-04-24T18:04:05.129Z,925.2
2019-04-24T18:07:05.027Z,925.4
2019-04-24T18:09:56.404Z,925.3
2019-04-24T18:12:52.215Z,925.4
2019-04-24T18:15:47.994Z,925.5
2019-04-24T18:18:43.724Z,925.4
2019-04-24T18:21:39.496Z,925.5
2019-04-24T18:24:35.226Z,925.7
2019-04-24T18:27:33.636Z,925.7
2019-04-24T18:30:26.731Z,925.9
2019-04-24T18:33:22.446Z,925.9
2019-04-24T18:36:18.146Z,925.9
2019-04-24T18:39:14.736Z,926
2019-04-24T18:42:09.422Z,924.7
2019-04-24T18:45:06.330Z,925.9
2019-04-24T18:48:02.536Z,925.8
2019-04-24T18:50:56.382Z,926
2019-04-24T18:53:52.595Z,926.1
2019-04-24T18:56:47.696Z,926
2019-04-24T18:59:43.936Z,926.2
2019-04-24T19:02:39.044Z,926.3
2019-04-24T19:05:34.694Z,926.2
2019-04-24T19:08:30.362Z,926.2
2019-04-24T19:11:26.039Z,926.6
2019-04-24T19:14:21.693Z,926.6
2019-04-24T19:17:17.956Z,926.6
2019-04-24T19:20:14.050Z,926.7
2019-04-24T19:23:14.029Z,926.7
2019-04-24T19:26:04.214Z,926.8
2019-04-24T19:28:59.845Z,926.7
2019-04-24T19:31:55.470Z,926.9
2019-04-24T19:34:52.884Z,927.2
2019-04-24T19:37:46.707Z,927
2019-04-24T19:40:43.267Z,927.2
2019-04-24T19:43:37.943Z,927.1
2019-04-24T19:46:33.581Z,927.1
2019-04-24T19:49:29.164Z,927.2
2019-04-24T19:52:24.769Z,927.1
2019-04-24T19:55:23.423Z,927.3
2019-04-24T19:58:16.564Z,927.5
2019-04-24T20:01:15.864Z,927.4
2019-04-24T20:04:07.223Z,927.4
2019-04-24T20:07:02.832Z,927.5
2019-04-24T20:09:58.421Z,927.5
2019-04-24T20:12:54.025Z,927.4
2019-04-24T20:15:49.577Z,927.4
2019-04-24T20:18:45.149Z,926.3
2019-04-24T20:21:42.327Z,927.6
2019-04-24T20:24:36.313Z,927.6
2019-04-24T20:27:33.566Z,927.7
2019-04-24T20:30:27.418Z,927.7
2019-04-24T20:33:24.717Z,927.9
2019-04-24T20:36:19.225Z,928
2019-04-24T20:39:15.470Z,928.1
2019-04-24T20:42:11.287Z,927.8
2019-04-24T20:45:05.229Z,927.8
2019-04-24T20:48:00.804Z,928
2019-04-24T20:50:56.376Z,928.2
2019-04-24T20:53:52.369Z,928.2
2019-04-24T20:56:47.479Z,928.2
2019-04-24T20:59:43.017Z,928.2
2019-04-24T21:02:38.573Z,928.3
2019-04-24T21:05:34.121Z,928.4
2019-04-24T21:08:29.696Z,927.4
2019-04-24T21:11:25.283Z,928.6
2019-04-24T21:14:20.946Z,928.6
2019-04-24T21:17:16.385Z,928.7
2019-04-24T21:20:13.062Z,928.6
2019-04-24T21:23:07.405Z,928.6
2019-04-24T21:26:02.928Z,928.7
2019-04-24T21:28:58.456Z,928.7
2019-04-24T21:31:54.371Z,929
2019-04-24T21:34:49.486Z,928.8
2019-04-24T21:37:44.985Z,929
2019-04-24T21:40:42.225Z,927.8
2019-04-24T21:43:36.715Z,929.2
2019-04-24T21:46:35.134Z,929.3
2019-04-24T21:49:27.155Z,929.4
2019-04-24T21:52:24.586Z,929.5
2019-04-24T21:55:17.797Z,929.4
2019-04-24T21:58:13.252Z,929.5
2019-04-24T22:01:08.685Z,929.5
2019-04-24T22:04:04.108Z,929.5
2019-04-24T22:06:59.560Z,929.7
2019-04-24T22:09:54.968Z,929.7
2019-04-24T22:12:52.029Z,930
2019-04-24T22:15:45.846Z,929.9
2019-04-24T22:18:42.684Z,928.8
2019-04-24T22:21:36.727Z,929.9
2019-04-24T22:24:33.976Z,930.1
2019-04-24T22:27:28.372Z,930.2
2019-04-24T22:30:22.743Z,930.2
2019-04-24T22:33:18.143Z,930.4
2019-04-24T22:36:13.473Z,930.1
2019-04-24T22:39:08.800Z,930.5
2019-04-24T22:42:04.144Z,930.3
2019-04-24T22:44:59.450Z,930.4
2019-04-24T22:47:54.742Z,930.3
2019-04-24T22:50:50.074Z,930.6
2019-04-24T22:53:45.362Z,930.5
2019-04-24T22:56:59.547Z,930.7
2019-04-24T22:59:37.501Z,930.7
2019-04-24T23:02:35.616Z,930.7
2019-04-24T23:05:26.598Z,930.7
2019-04-24T23:08:21.864Z,930.7
2019-04-24T23:14:12.451Z,930.5
2019-04-24T23:17:07.736Z,930.5
2019-04-24T23:20:03.000Z,930.5
2019-04-24T23:22:58.265Z,930.5
2019-04-24T23:25:53.517Z,930.5
2019-04-24T23:28:48.789Z,930.6
2019-04-24T23:31:44.596Z,930.7
2019-04-24T23:34:43.747Z,930.6
2019-04-24T23:37:35.913Z,930.5
2019-04-24T23:40:29.815Z,929.4
2019-04-24T23:43:25.073Z,930.3
2019-04-24T23:46:22.203Z,930.5
2019-04-24T23:49:15.584Z,930.4
2019-04-24T23:52:10.867Z,929.1
2019-04-24T23:55:08.088Z,930.4
2019-04-24T23:58:01.313Z,930.3
